sensor_id;sensor_type;location;lat;lon;timestamp;pressure;altitude;pressure_sealevel;temperature;humidity
80733;BME280;70130;44.534;18.678;2023-06-26T00:02:16;99006.81;;;18.49;80.30
80733;BME280;70130;44.534;18.678;2023-06-26T00:04:43;99007.63;;;18.49;80.72
80733;BME280;70130;44.534;18.678;2023-06-26T00:07:08;99003.00;;;18.53;80.50
80733;BME280;70130;44.534;18.678;2023-06-26T00:09:34;99008.41;;;18.50;80.70
80733;BME280;70130;44.534;18.678;2023-06-26T00:12:00;99010.03;;;18.58;80.25
80733;BME280;70130;44.534;18.678;2023-06-26T00:14:25;98999.91;;;18.55;80.16
80733;BME280;70130;44.534;18.678;2023-06-26T00:16:51;99005.38;;;18.59;79.88
80733;BME280;70130;44.534;18.678;2023-06-26T00:19:17;99009.34;;;18.68;79.86
80733;BME280;70130;44.534;18.678;2023-06-26T00:21:43;98999.94;;;18.59;79.87
80733;BME280;70130;44.534;18.678;2023-06-26T00:24:16;98999.16;;;18.58;80.23
80733;BME280;70130;44.534;18.678;2023-06-26T00:26:42;98994.81;;;18.50;80.75
80733;BME280;70130;44.534;18.678;2023-06-26T00:29:07;99000.25;;;18.50;80.31
80733;BME280;70130;44.534;18.678;2023-06-26T00:31:33;98992.47;;;18.52;80.23
80733;BME280;70130;44.534;18.678;2023-06-26T00:34:01;98990.22;;;18.54;80.32
80733;BME280;70130;44.534;18.678;2023-06-26T00:36:26;98993.97;;;18.46;80.21
80733;BME280;70130;44.534;18.678;2023-06-26T00:38:52;99002.13;;;18.46;80.68
80733;BME280;70130;44.534;18.678;2023-06-26T00:41:19;98994.84;;;18.53;80.51
80733;BME280;70130;44.534;18.678;2023-06-26T00:43:44;98997.19;;;18.55;79.98
80733;BME280;70130;44.534;18.678;2023-06-26T00:46:12;98990.53;;;18.49;80.45
80733;BME280;70130;44.534;18.678;2023-06-26T00:48:39;98985.09;;;18.52;80.09
80733;BME280;70130;44.534;18.678;2023-06-26T00:51:06;98979.25;;;18.47;80.05
80733;BME280;70130;44.534;18.678;2023-06-26T00:53:33;98996.84;;;18.60;79.77
80733;BME280;70130;44.534;18.678;2023-06-26T00:55:59;98986.75;;;18.61;80.01
80733;BME280;70130;44.534;18.678;2023-06-26T00:58:25;98998.41;;;18.61;79.83
80733;BME280;70130;44.534;18.678;2023-06-26T01:00:52;98993.72;;;18.54;80.32
80733;BME280;70130;44.534;18.678;2023-06-26T01:03:19;98981.75;;;18.26;81.42
80733;BME280;70130;44.534;18.678;2023-06-26T01:05:47;98981.75;;;18.22;81.52
80733;BME280;70130;44.534;18.678;2023-06-26T01:08:17;98983.53;;;18.04;82.41
80733;BME280;70130;44.534;18.678;2023-06-26T01:10:44;98997.16;;;18.11;82.38
80733;BME280;70130;44.534;18.678;2023-06-26T01:13:12;98985.09;;;18.05;82.35
80733;BME280;70130;44.534;18.678;2023-06-26T01:15:39;98992.09;;;18.09;82.36
80733;BME280;70130;44.534;18.678;2023-06-26T01:18:05;98984.34;;;18.11;82.24
80733;BME280;70130;44.534;18.678;2023-06-26T01:20:36;98989.09;;;18.22;82.10
80733;BME280;70130;44.534;18.678;2023-06-26T01:28:16;98989.09;;;18.22;81.97
80733;BME280;70130;44.534;18.678;2023-06-26T01:30:44;98989.97;;;18.29;81.76
80733;BME280;70130;44.534;18.678;2023-06-26T01:33:11;98988.03;;;18.30;81.71
80733;BME280;70130;44.534;18.678;2023-06-26T01:35:37;98987.97;;;18.23;81.97
80733;BME280;70130;44.534;18.678;2023-06-26T01:38:12;98981.63;;;18.11;82.26
80733;BME280;70130;44.534;18.678;2023-06-26T01:40:38;98989.16;;;18.25;81.83
80733;BME280;70130;44.534;18.678;2023-06-26T01:43:06;98978.28;;;18.25;81.74
80733;BME280;70130;44.534;18.678;2023-06-26T01:45:37;98978.66;;;18.24;81.42
80733;BME280;70130;44.534;18.678;2023-06-26T01:48:06;98983.00;;;18.32;81.18
80733;BME280;70130;44.534;18.678;2023-06-26T01:50:33;98978.66;;;18.24;81.82
80733;BME280;70130;44.534;18.678;2023-06-26T01:53:12;98978.56;;;18.13;82.38
80733;BME280;70130;44.534;18.678;2023-06-26T01:56:00;98978.06;;;18.00;82.42
80733;BME280;70130;44.534;18.678;2023-06-26T01:58:29;98973.31;;;17.90;82.77
80733;BME280;70130;44.534;18.678;2023-06-26T02:00:57;98966.78;;;17.98;82.70
80733;BME280;70130;44.534;18.678;2023-06-26T02:03:22;98967.19;;;18.00;82.43
80733;BME280;70130;44.534;18.678;2023-06-26T02:05:50;98966.63;;;17.81;83.43
80733;BME280;70130;44.534;18.678;2023-06-26T02:08:16;98972.06;;;17.84;83.04
80733;BME280;70130;44.534;18.678;2023-06-26T02:10:47;98961.53;;;17.79;83.06
80733;BME280;70130;44.534;18.678;2023-06-26T02:13:15;98963.94;;;17.84;82.88
80733;BME280;70130;44.534;18.678;2023-06-26T02:15:41;98970.94;;;17.85;82.89
80733;BME280;70130;44.534;18.678;2023-06-26T02:18:07;98957.69;;;17.80;82.93
80733;BME280;70130;44.534;18.678;2023-06-26T02:20:33;98970.13;;;17.85;82.83
80733;BME280;70130;44.534;18.678;2023-06-26T02:22:59;98964.56;;;17.71;83.23
80733;BME280;70130;44.534;18.678;2023-06-26T02:25:25;98974.16;;;17.61;83.54
80733;BME280;70130;44.534;18.678;2023-06-26T02:27:51;98967.81;;;17.53;83.82
80733;BME280;70130;44.534;18.678;2023-06-26T02:30:18;98972.44;;;17.49;83.53
80733;BME280;70130;44.534;18.678;2023-06-26T02:32:44;98958.31;;;17.37;83.83
80733;BME280;70130;44.534;18.678;2023-06-26T02:35:10;98966.22;;;17.49;83.57
80733;BME280;70130;44.534;18.678;2023-06-26T02:37:41;98962.91;;;17.33;83.49
80733;BME280;70130;44.534;18.678;2023-06-26T02:40:07;98954.91;;;17.13;83.85
80733;BME280;70130;44.534;18.678;2023-06-26T02:42:35;98966.19;;;17.15;83.98
80733;BME280;70130;44.534;18.678;2023-06-26T02:45:01;98962.66;;;17.11;84.32
80733;BME280;70130;44.534;18.678;2023-06-26T02:47:29;98963.00;;;17.10;84.39
80733;BME280;70130;44.534;18.678;2023-06-26T02:49:54;98973.50;;;17.11;84.18
80733;BME280;70130;44.534;18.678;2023-06-26T02:52:20;98954.72;;;16.99;84.32
80733;BME280;70130;44.534;18.678;2023-06-26T02:54:46;98964.13;;;17.05;84.26
80733;BME280;70130;44.534;18.678;2023-06-26T02:57:12;98969.13;;;17.03;84.59
80733;BME280;70130;44.534;18.678;2023-06-26T02:59:41;98970.97;;;16.96;84.84
80733;BME280;70130;44.534;18.678;2023-06-26T03:02:08;98968.91;;;16.89;85.24
80733;BME280;70130;44.534;18.678;2023-06-26T03:04:39;98977.22;;;17.00;85.01
80733;BME280;70130;44.534;18.678;2023-06-26T03:07:08;98966.63;;;16.91;85.00
80733;BME280;70130;44.534;18.678;2023-06-26T03:09:34;98970.44;;;16.87;85.04
80733;BME280;70130;44.534;18.678;2023-06-26T03:12:00;98968.84;;;16.82;85.29
80733;BME280;70130;44.534;18.678;2023-06-26T03:14:25;98963.50;;;16.89;85.18
80733;BME280;70130;44.534;18.678;2023-06-26T03:16:52;98955.47;;;16.96;84.97
80733;BME280;70130;44.534;18.678;2023-06-26T03:19:18;98966.47;;;17.07;84.65
80733;BME280;70130;44.534;18.678;2023-06-26T03:22:07;98969.63;;;17.12;84.41
80733;BME280;70130;44.534;18.678;2023-06-26T03:24:32;98978.66;;;17.20;84.26
80733;BME280;70130;44.534;18.678;2023-06-26T03:26:59;98963.47;;;17.15;83.92
80733;BME280;70130;44.534;18.678;2023-06-26T03:29:25;98976.72;;;17.20;83.74
80733;BME280;70130;44.534;18.678;2023-06-26T03:31:51;98975.91;;;17.16;83.11
80733;BME280;70130;44.534;18.678;2023-06-26T03:34:18;98973.53;;;17.15;83.33
80733;BME280;70130;44.534;18.678;2023-06-26T03:36:43;98988.25;;;17.14;83.02
80733;BME280;70130;44.534;18.678;2023-06-26T03:39:09;98996.09;;;17.22;82.78
80733;BME280;70130;44.534;18.678;2023-06-26T03:41:35;98986.81;;;17.23;82.47
80733;BME280;70130;44.534;18.678;2023-06-26T03:44:00;98990.44;;;17.05;82.90
80733;BME280;70130;44.534;18.678;2023-06-26T03:46:33;98982.00;;;17.10;83.05
80733;BME280;70130;44.534;18.678;2023-06-26T03:48:58;98985.84;;;17.09;83.03
80733;BME280;70130;44.534;18.678;2023-06-26T03:51:24;98987.97;;;17.22;82.38
80733;BME280;70130;44.534;18.678;2023-06-26T03:53:50;98982.97;;;17.24;82.41
80733;BME280;70130;44.534;18.678;2023-06-26T03:56:15;98992.72;;;17.29;82.13
80733;BME280;70130;44.534;18.678;2023-06-26T03:58:42;98990.41;;;17.31;81.94
80733;BME280;70130;44.534;18.678;2023-06-26T04:01:07;98976.78;;;17.27;81.94
80733;BME280;70130;44.534;18.678;2023-06-26T04:03:33;98992.03;;;17.36;82.00
80733;BME280;70130;44.534;18.678;2023-06-26T04:05:59;98992.84;;;17.40;82.49
80733;BME280;70130;44.534;18.678;2023-06-26T04:08:24;98994.91;;;17.50;82.40
80733;BME280;70130;44.534;18.678;2023-06-26T04:10:52;98992.59;;;17.52;82.51
80733;BME280;70130;44.534;18.678;2023-06-26T04:13:19;98982.94;;;17.54;82.50
80733;BME280;70130;44.534;18.678;2023-06-26T04:15:44;98997.03;;;17.63;82.43
80733;BME280;70130;44.534;18.678;2023-06-26T04:18:10;98995.19;;;17.71;81.73
80733;BME280;70130;44.534;18.678;2023-06-26T04:20:39;98998.28;;;17.69;81.69
80733;BME280;70130;44.534;18.678;2023-06-26T04:23:06;98995.97;;;17.72;80.78
80733;BME280;70130;44.534;18.678;2023-06-26T04:25:31;99008.03;;;17.74;81.23
80733;BME280;70130;44.534;18.678;2023-06-26T04:27:57;98994.09;;;17.76;80.88
80733;BME280;70130;44.534;18.678;2023-06-26T04:30:22;98985.56;;;17.77;80.59
80733;BME280;70130;44.534;18.678;2023-06-26T04:32:48;98989.59;;;17.90;80.69
80733;BME280;70130;44.534;18.678;2023-06-26T04:35:14;99001.75;;;18.03;80.65
80733;BME280;70130;44.534;18.678;2023-06-26T04:37:39;98987.69;;;17.94;80.35
80733;BME280;70130;44.534;18.678;2023-06-26T04:40:06;99011.84;;;18.06;79.84
80733;BME280;70130;44.534;18.678;2023-06-26T04:42:32;99003.38;;;18.11;80.05
80733;BME280;70130;44.534;18.678;2023-06-26T04:44:58;99001.41;;;18.08;79.98
80733;BME280;70130;44.534;18.678;2023-06-26T04:47:23;99000.59;;;18.04;80.43
80733;BME280;70130;44.534;18.678;2023-06-26T04:49:49;99006.41;;;18.06;80.19
80733;BME280;70130;44.534;18.678;2023-06-26T04:52:14;98996.72;;;18.05;79.99
80733;BME280;70130;44.534;18.678;2023-06-26T04:54:40;99007.25;;;18.10;80.21
80733;BME280;70130;44.534;18.678;2023-06-26T04:57:05;99010.38;;;18.12;80.34
80733;BME280;70130;44.534;18.678;2023-06-26T04:59:31;99001.84;;;18.14;80.42
80733;BME280;70130;44.534;18.678;2023-06-26T05:01:57;98993.72;;;18.18;79.87
80733;BME280;70130;44.534;18.678;2023-06-26T05:04:22;99008.19;;;18.29;79.96
80733;BME280;70130;44.534;18.678;2023-06-26T05:06:48;99011.38;;;18.38;79.89
80733;BME280;70130;44.534;18.678;2023-06-26T05:09:14;98998.97;;;18.40;79.67
80733;BME280;70130;44.534;18.678;2023-06-26T05:11:39;99016.91;;;18.48;79.84
80733;BME280;70130;44.534;18.678;2023-06-26T05:14:05;99010.72;;;18.51;79.58
80733;BME280;70130;44.534;18.678;2023-06-26T05:16:33;99008.41;;;18.50;78.97
80733;BME280;70130;44.534;18.678;2023-06-26T05:18:59;99004.59;;;18.58;79.33
80733;BME280;70130;44.534;18.678;2023-06-26T05:21:25;99010.84;;;18.62;79.05
80733;BME280;70130;44.534;18.678;2023-06-26T05:23:52;99012.88;;;18.76;78.83
80733;BME280;70130;44.534;18.678;2023-06-26T05:26:21;99014.88;;;18.82;78.14
80733;BME280;70130;44.534;18.678;2023-06-26T05:28:47;99023.72;;;18.72;78.40
80733;BME280;70130;44.534;18.678;2023-06-26T05:31:15;99007.00;;;18.67;78.41
80733;BME280;70130;44.534;18.678;2023-06-26T05:33:43;99016.97;;;18.55;78.87
80733;BME280;70130;44.534;18.678;2023-06-26T05:36:10;99017.16;;;18.73;78.73
80733;BME280;70130;44.534;18.678;2023-06-26T05:38:38;99017.94;;;18.74;78.08
80733;BME280;70130;44.534;18.678;2023-06-26T05:41:03;99022.59;;;18.77;78.41
80733;BME280;70130;44.534;18.678;2023-06-26T05:43:29;99013.38;;;18.88;78.00
80733;BME280;70130;44.534;18.678;2023-06-26T05:45:56;99021.19;;;18.97;77.47
80733;BME280;70130;44.534;18.678;2023-06-26T05:48:23;99022.00;;;19.01;77.15
80733;BME280;70130;44.534;18.678;2023-06-26T05:50:49;99017.75;;;19.04;77.05
80733;BME280;70130;44.534;18.678;2023-06-26T05:53:15;99020.56;;;19.25;76.56
80733;BME280;70130;44.534;18.678;2023-06-26T05:55:40;99015.63;;;19.41;75.95
80733;BME280;70130;44.534;18.678;2023-06-26T05:58:09;99023.03;;;19.44;75.57
80733;BME280;70130;44.534;18.678;2023-06-26T06:00:35;99014.56;;;19.56;75.70
80733;BME280;70130;44.534;18.678;2023-06-26T06:03:01;99031.66;;;19.60;75.33
80733;BME280;70130;44.534;18.678;2023-06-26T06:05:26;99019.59;;;19.54;75.00
80733;BME280;70130;44.534;18.678;2023-06-26T06:07:52;99015.00;;;19.72;74.67
80733;BME280;70130;44.534;18.678;2023-06-26T06:10:18;99012.75;;;19.96;74.22
80733;BME280;70130;44.534;18.678;2023-06-26T06:12:43;99010.06;;;20.17;73.61
80733;BME280;70130;44.534;18.678;2023-06-26T06:15:09;99021.81;;;20.46;72.28
80733;BME280;70130;44.534;18.678;2023-06-26T06:17:34;99022.59;;;20.50;71.53
80733;BME280;70130;44.534;18.678;2023-06-26T06:20:00;99018.69;;;20.47;70.06
80733;BME280;70130;44.534;18.678;2023-06-26T06:22:26;99019.84;;;20.36;70.44
80733;BME280;70130;44.534;18.678;2023-06-26T06:24:51;99019.78;;;20.07;70.22
80733;BME280;70130;44.534;18.678;2023-06-26T06:27:17;99020.19;;;20.20;70.41
80733;BME280;70130;44.534;18.678;2023-06-26T06:29:43;99025.59;;;20.06;70.54
80733;BME280;70130;44.534;18.678;2023-06-26T06:32:09;99021.31;;;20.08;70.67
80733;BME280;70130;44.534;18.678;2023-06-26T06:34:35;99021.34;;;20.12;70.83
80733;BME280;70130;44.534;18.678;2023-06-26T06:37:00;99016.69;;;20.16;70.66
80733;BME280;70130;44.534;18.678;2023-06-26T06:39:26;99012.38;;;20.18;71.11
80733;BME280;70130;44.534;18.678;2023-06-26T06:41:51;99003.81;;;20.13;71.02
80733;BME280;70130;44.534;18.678;2023-06-26T06:44:17;99007.72;;;20.19;71.05
80733;BME280;70130;44.534;18.678;2023-06-26T06:46:43;99006.94;;;20.11;70.73
80733;BME280;70130;44.534;18.678;2023-06-26T06:49:09;99001.09;;;20.20;71.72
80733;BME280;70130;44.534;18.678;2023-06-26T06:51:34;99001.13;;;20.16;71.36
80733;BME280;70130;44.534;18.678;2023-06-26T06:54:00;98996.03;;;20.11;71.48
80733;BME280;70130;44.534;18.678;2023-06-26T06:56:26;99003.06;;;20.26;71.57
80733;BME280;70130;44.534;18.678;2023-06-26T06:58:52;99004.63;;;20.27;71.13
80733;BME280;70130;44.534;18.678;2023-06-26T07:01:17;99000.72;;;20.25;70.94
80733;BME280;70130;44.534;18.678;2023-06-26T07:03:43;98998.41;;;20.27;71.70
80733;BME280;70130;44.534;18.678;2023-06-26T07:06:08;98996.88;;;20.40;71.57
80733;BME280;70130;44.534;18.678;2023-06-26T07:08:34;98989.88;;;20.46;70.73
80733;BME280;70130;44.534;18.678;2023-06-26T07:11:00;99003.91;;;20.55;70.90
80733;BME280;70130;44.534;18.678;2023-06-26T07:13:26;98998.81;;;20.54;70.93
80733;BME280;70130;44.534;18.678;2023-06-26T07:15:53;99001.56;;;20.64;70.59
80733;BME280;70130;44.534;18.678;2023-06-26T07:18:19;98996.09;;;20.61;70.48
80733;BME280;70130;44.534;18.678;2023-06-26T07:20:45;98994.53;;;20.63;70.57
80733;BME280;70130;44.534;18.678;2023-06-26T07:23:10;99004.28;;;20.75;70.38
80733;BME280;70130;44.534;18.678;2023-06-26T07:25:36;99001.91;;;20.88;70.22
80733;BME280;70130;44.534;18.678;2023-06-26T07:28:02;98997.63;;;20.94;69.66
80733;BME280;70130;44.534;18.678;2023-06-26T07:30:28;99001.50;;;21.03;68.92
80733;BME280;70130;44.534;18.678;2023-06-26T07:32:54;98997.59;;;21.08;68.67
80733;BME280;70130;44.534;18.678;2023-06-26T07:35:19;98994.50;;;21.06;68.41
80733;BME280;70130;44.534;18.678;2023-06-26T07:37:45;98992.53;;;21.14;68.82
80733;BME280;70130;44.534;18.678;2023-06-26T07:40:11;98999.16;;;21.09;68.66
80733;BME280;70130;44.534;18.678;2023-06-26T07:42:37;99000.72;;;21.24;68.57
80733;BME280;70130;44.534;18.678;2023-06-26T07:45:03;98994.09;;;21.25;67.83
80733;BME280;70130;44.534;18.678;2023-06-26T07:47:36;98995.63;;;21.30;67.86
80733;BME280;70130;44.534;18.678;2023-06-26T07:50:02;98993.63;;;21.44;67.58
80733;BME280;70130;44.534;18.678;2023-06-26T07:54:53;98997.91;;;21.45;67.06
80733;BME280;70130;44.534;18.678;2023-06-26T07:57:18;99003.72;;;21.54;66.95
80733;BME280;70130;44.534;18.678;2023-06-26T07:59:44;99003.31;;;21.56;67.50
80733;BME280;70130;44.534;18.678;2023-06-26T08:02:09;98997.84;;;21.63;66.99
80733;BME280;70130;44.534;18.678;2023-06-26T08:04:35;98998.16;;;21.76;66.85
80733;BME280;70130;44.534;18.678;2023-06-26T08:07:01;98985.34;;;21.66;67.30
80733;BME280;70130;44.534;18.678;2023-06-26T08:09:29;98998.16;;;21.76;67.43
80733;BME280;70130;44.534;18.678;2023-06-26T08:11:56;98995.41;;;21.76;66.96
80733;BME280;70130;44.534;18.678;2023-06-26T08:14:21;99009.00;;;21.97;66.81
80733;BME280;70130;44.534;18.678;2023-06-26T08:16:47;99008.91;;;22.11;66.50
80733;BME280;70130;44.534;18.678;2023-06-26T08:19:14;99006.50;;;22.20;66.23
80733;BME280;70130;44.534;18.678;2023-06-26T08:21:40;98990.53;;;22.15;66.28
80733;BME280;70130;44.534;18.678;2023-06-26T08:24:06;98999.94;;;22.14;66.04
80733;BME280;70130;44.534;18.678;2023-06-26T08:26:32;98991.34;;;22.12;67.19
80733;BME280;70130;44.534;18.678;2023-06-26T08:28:57;99001.41;;;22.26;66.25
80733;BME280;70130;44.534;18.678;2023-06-26T08:31:23;99004.97;;;22.19;66.45
80733;BME280;70130;44.534;18.678;2023-06-26T08:33:49;99006.56;;;22.13;66.55
80733;BME280;70130;44.534;18.678;2023-06-26T08:36:14;99006.91;;;22.22;66.73
80733;BME280;70130;44.534;18.678;2023-06-26T08:38:41;99007.97;;;22.35;65.35
80733;BME280;70130;44.534;18.678;2023-06-26T08:41:07;99005.94;;;22.47;64.75
80733;BME280;70130;44.534;18.678;2023-06-26T08:43:34;99004.94;;;22.78;65.45
80733;BME280;70130;44.534;18.678;2023-06-26T08:46:00;98995.56;;;22.79;64.70
80733;BME280;70130;44.534;18.678;2023-06-26T08:48:25;98987.94;;;22.97;64.14
80733;BME280;70130;44.534;18.678;2023-06-26T08:50:55;98995.09;;;23.21;63.65
80733;BME280;70130;44.534;18.678;2023-06-26T08:53:29;98996.97;;;23.32;62.92
80733;BME280;70130;44.534;18.678;2023-06-26T08:55:59;98990.19;;;23.40;62.11
80733;BME280;70130;44.534;18.678;2023-06-26T08:58:25;98990.59;;;23.42;64.04
80733;BME280;70130;44.534;18.678;2023-06-26T09:00:51;98992.75;;;23.23;62.21
80733;BME280;70130;44.534;18.678;2023-06-26T09:03:17;99001.59;;;23.01;63.20
80733;BME280;70130;44.534;18.678;2023-06-26T09:05:43;98992.94;;;23.06;61.75
80733;BME280;70130;44.534;18.678;2023-06-26T09:08:08;98993.41;;;22.97;61.98
80733;BME280;70130;44.534;18.678;2023-06-26T09:10:34;98999.69;;;22.94;62.45
80733;BME280;70130;44.534;18.678;2023-06-26T09:12:59;98989.25;;;22.82;62.77
80733;BME280;70130;44.534;18.678;2023-06-26T09:15:37;98990.81;;;22.83;62.01
80733;BME280;70130;44.534;18.678;2023-06-26T09:18:04;98977.03;;;22.94;62.70
80733;BME280;70130;44.534;18.678;2023-06-26T09:20:30;98961.25;;;23.05;63.20
80733;BME280;70130;44.534;18.678;2023-06-26T09:22:58;98973.22;;;23.21;62.43
80733;BME280;70130;44.534;18.678;2023-06-26T09:25:24;98967.66;;;23.29;61.54
80733;BME280;70130;44.534;18.678;2023-06-26T09:27:50;98976.16;;;23.38;61.47
80733;BME280;70130;44.534;18.678;2023-06-26T09:30:19;98982.28;;;23.49;60.46
80733;BME280;70130;44.534;18.678;2023-06-26T09:32:45;98974.50;;;23.44;60.74
80733;BME280;70130;44.534;18.678;2023-06-26T09:35:11;98970.66;;;23.72;59.69
80733;BME280;70130;44.534;18.678;2023-06-26T09:37:37;98980.28;;;24.10;59.50
80733;BME280;70130;44.534;18.678;2023-06-26T09:40:04;98971.59;;;23.88;58.36
80733;BME280;70130;44.534;18.678;2023-06-26T09:42:33;98974.91;;;23.76;58.42
80733;BME280;70130;44.534;18.678;2023-06-26T09:44:59;98970.41;;;23.62;57.80
80733;BME280;70130;44.534;18.678;2023-06-26T09:47:25;98970.41;;;23.89;55.31
80733;BME280;70130;44.534;18.678;2023-06-26T09:49:50;98980.34;;;24.06;55.74
80733;BME280;70130;44.534;18.678;2023-06-26T09:52:18;98978.75;;;23.82;53.28
80733;BME280;70130;44.534;18.678;2023-06-26T09:54:45;98976.09;;;23.75;54.94
80733;BME280;70130;44.534;18.678;2023-06-26T09:57:12;98977.00;;;23.65;56.51
80733;BME280;70130;44.534;18.678;2023-06-26T09:59:39;98972.63;;;23.71;56.02
80733;BME280;70130;44.534;18.678;2023-06-26T10:02:06;98977.72;;;23.69;57.21
80733;BME280;70130;44.534;18.678;2023-06-26T10:04:35;98987.75;;;23.52;59.43
80733;BME280;70130;44.534;18.678;2023-06-26T10:07:02;98980.31;;;23.53;60.35
80733;BME280;70130;44.534;18.678;2023-06-26T10:09:30;98971.03;;;23.40;61.57
80733;BME280;70130;44.534;18.678;2023-06-26T10:14:30;98981.34;;;22.91;63.29
80733;BME280;70130;44.534;18.678;2023-06-26T10:16:58;98982.53;;;22.90;63.20
80733;BME280;70130;44.534;18.678;2023-06-26T10:19:24;98978.13;;;23.03;62.50
80733;BME280;70130;44.534;18.678;2023-06-26T10:21:53;98969.66;;;23.24;62.07
80733;BME280;70130;44.534;18.678;2023-06-26T10:24:21;98965.59;;;23.36;60.90
80733;BME280;70130;44.534;18.678;2023-06-26T10:26:51;98972.31;;;23.65;61.65
80733;BME280;70130;44.534;18.678;2023-06-26T10:29:19;98971.69;;;24.08;59.91
80733;BME280;70130;44.534;18.678;2023-06-26T10:31:50;98970.31;;;23.96;58.93
80733;BME280;70130;44.534;18.678;2023-06-26T10:34:17;98974.19;;;23.99;59.34
80733;BME280;70130;44.534;18.678;2023-06-26T10:36:43;98974.25;;;23.95;59.42
80733;BME280;70130;44.534;18.678;2023-06-26T10:39:09;98974.50;;;24.04;57.98
80733;BME280;70130;44.534;18.678;2023-06-26T10:41:41;98970.06;;;23.87;59.35
80733;BME280;70130;44.534;18.678;2023-06-26T10:44:10;98978.09;;;24.01;59.75
80733;BME280;70130;44.534;18.678;2023-06-26T10:46:56;98970.06;;;24.14;59.31
80733;BME280;70130;44.534;18.678;2023-06-26T10:49:29;98949.31;;;24.13;58.89
80733;BME280;70130;44.534;18.678;2023-06-26T10:52:01;98954.84;;;24.36;58.59
80733;BME280;70130;44.534;18.678;2023-06-26T10:54:31;98957.91;;;24.65;57.69
80733;BME280;70130;44.534;18.678;2023-06-26T10:56:59;98962.41;;;24.99;55.93
80733;BME280;70130;44.534;18.678;2023-06-26T10:59:28;98960.38;;;25.42;54.99
80733;BME280;70130;44.534;18.678;2023-06-26T11:01:59;98962.44;;;25.18;52.90
80733;BME280;70130;44.534;18.678;2023-06-26T11:04:45;98946.53;;;24.86;53.22
80733;BME280;70130;44.534;18.678;2023-06-26T11:07:16;98949.00;;;24.81;52.04
80733;BME280;70130;44.534;18.678;2023-06-26T11:09:59;98953.78;;;25.20;52.63
80733;BME280;70130;44.534;18.678;2023-06-26T11:12:44;98935.56;;;24.86;51.06
80733;BME280;70130;44.534;18.678;2023-06-26T11:15:17;98950.34;;;25.52;50.11
80733;BME280;70130;44.534;18.678;2023-06-26T11:17:44;98949.06;;;25.60;50.13
80733;BME280;70130;44.534;18.678;2023-06-26T11:20:15;98939.06;;;25.30;49.42
80733;BME280;70130;44.534;18.678;2023-06-26T11:22:42;98936.53;;;25.19;50.55
80733;BME280;70130;44.534;18.678;2023-06-26T11:25:09;98937.75;;;25.54;49.87
80733;BME280;70130;44.534;18.678;2023-06-26T11:30:04;98916.63;;;25.51;50.40
80733;BME280;70130;44.534;18.678;2023-06-26T11:32:30;98917.28;;;25.59;49.93
80733;BME280;70130;44.534;18.678;2023-06-26T11:34:58;98921.53;;;25.79;50.20
80733;BME280;70130;44.534;18.678;2023-06-26T11:37:24;98917.94;;;25.99;47.54
80733;BME280;70130;44.534;18.678;2023-06-26T11:39:50;98920.50;;;25.90;48.70
80733;BME280;70130;44.534;18.678;2023-06-26T11:42:20;98917.59;;;26.13;48.16
80733;BME280;70130;44.534;18.678;2023-06-26T11:44:46;98912.84;;;26.62;47.51
80733;BME280;70130;44.534;18.678;2023-06-26T11:47:17;98902.59;;;26.79;46.28
80733;BME280;70130;44.534;18.678;2023-06-26T11:49:49;98910.63;;;27.02;45.58
80733;BME280;70130;44.534;18.678;2023-06-26T11:52:20;98909.28;;;26.78;46.20
80733;BME280;70130;44.534;18.678;2023-06-26T11:54:47;98901.34;;;26.96;45.19
80733;BME280;70130;44.534;18.678;2023-06-26T11:57:14;98899.75;;;26.66;46.19
80733;BME280;70130;44.534;18.678;2023-06-26T11:59:40;98908.97;;;27.04;44.17
80733;BME280;70130;44.534;18.678;2023-06-26T12:02:09;98895.56;;;26.61;45.66
80733;BME280;70130;44.534;18.678;2023-06-26T12:04:37;98907.47;;;26.42;46.43
80733;BME280;70130;44.534;18.678;2023-06-26T12:07:03;98905.03;;;25.96;47.04
80733;BME280;70130;44.534;18.678;2023-06-26T12:09:31;98907.75;;;25.63;47.02
80733;BME280;70130;44.534;18.678;2023-06-26T12:11:59;98909.41;;;25.77;47.33
80733;BME280;70130;44.534;18.678;2023-06-26T12:14:25;98904.00;;;25.54;46.33
80733;BME280;70130;44.534;18.678;2023-06-26T12:16:54;98903.97;;;25.37;47.22
80733;BME280;70130;44.534;18.678;2023-06-26T12:19:24;98909.66;;;25.47;47.79
80733;BME280;70130;44.534;18.678;2023-06-26T12:21:52;98908.94;;;25.62;48.65
80733;BME280;70130;44.534;18.678;2023-06-26T12:24:21;98900.56;;;25.69;49.36
80733;BME280;70130;44.534;18.678;2023-06-26T12:26:53;98914.53;;;25.59;49.84
80733;BME280;70130;44.534;18.678;2023-06-26T12:29:20;98914.31;;;25.86;49.74
80733;BME280;70130;44.534;18.678;2023-06-26T12:31:51;98915.78;;;26.06;49.09
80733;BME280;70130;44.534;18.678;2023-06-26T12:34:27;98907.03;;;26.11;48.70
80733;BME280;70130;44.534;18.678;2023-06-26T12:36:53;98898.44;;;26.26;48.05
80733;BME280;70130;44.534;18.678;2023-06-26T12:39:20;98897.66;;;26.25;48.10
80733;BME280;70130;44.534;18.678;2023-06-26T12:41:52;98903.94;;;26.42;47.35
80733;BME280;70130;44.534;18.678;2023-06-26T12:46:46;98896.03;;;26.89;45.90
80733;BME280;70130;44.534;18.678;2023-06-26T12:49:13;98897.88;;;27.21;44.71
80733;BME280;70130;44.534;18.678;2023-06-26T12:51:38;98890.38;;;27.63;43.87
80733;BME280;70130;44.534;18.678;2023-06-26T12:54:05;98893.00;;;27.79;43.57
80733;BME280;70130;44.534;18.678;2023-06-26T12:56:31;98884.63;;;27.95;43.34
80733;BME280;70130;44.534;18.678;2023-06-26T12:58:56;98882.75;;;27.92;42.51
80733;BME280;70130;44.534;18.678;2023-06-26T13:01:22;98887.72;;;27.59;44.53
80733;BME280;70130;44.534;18.678;2023-06-26T13:03:50;98893.13;;;27.63;44.97
80733;BME280;70130;44.534;18.678;2023-06-26T13:06:18;98878.66;;;27.84;44.29